createdAt,value
2019-05-07T00:01:54.985Z,58.01
2019-05-07T00:04:23.456Z,57.94
2019-05-07T00:06:53.497Z,58.02
2019-05-07T00:09:23.597Z,58.59
2019-05-07T00:11:53.674Z,57.71
2019-05-07T00:14:25.255Z,58.15
2019-05-07T00:16:55.241Z,59.11
2019-05-07T00:19:25.135Z,58.63
2019-05-07T00:21:55.047Z,58.60
2019-05-07T00:24:24.842Z,59.12
2019-05-07T00:26:54.681Z,59.44
2019-05-07T00:29:24.661Z,59.05
2019-05-07T00:31:54.655Z,59.08
2019-05-07T00:34:28.863Z,58.98
2019-05-07T00:37:16.714Z,58.44
2019-05-07T00:40:07.305Z,59.07
2019-05-07T00:42:55.000Z,59.38
2019-05-07T00:45:32.621Z,59.24
2019-05-07T00:48:02.986Z,59.22
2019-05-07T00:50:34.503Z,59.14
2019-05-07T00:53:04.598Z,59.79
2019-05-07T00:55:34.655Z,60.51
2019-05-07T00:58:04.627Z,60.89
2019-05-07T01:00:34.707Z,62.26
2019-05-07T01:03:04.782Z,62.22
2019-05-07T01:05:34.760Z,61.52
2019-05-07T01:08:04.665Z,61.89
2019-05-07T01:10:34.579Z,62.62
2019-05-07T01:13:04.571Z,61.72
2019-05-07T01:15:34.844Z,62.18
2019-05-07T01:18:04.914Z,62.22
2019-05-07T01:20:34.792Z,61.13
2019-05-07T01:23:04.689Z,61.15
2019-05-07T01:25:34.593Z,61.60
2019-05-07T01:28:04.581Z,61.63
2019-05-07T01:30:34.641Z,61.78
2019-05-07T01:33:17.865Z,61.52
2019-05-07T01:36:09.974Z,61.17
2019-05-07T01:38:39.796Z,60.97
2019-05-07T01:41:09.707Z,60.79
2019-05-07T01:43:39.705Z,60.53
2019-05-07T01:46:09.606Z,61.44
2019-05-07T01:48:42.755Z,61.34
2019-05-07T01:51:12.853Z,60.62
2019-05-07T01:53:43.146Z,60.64
2019-05-07T01:56:13.135Z,61.24
2019-05-07T01:58:43.028Z,60.96
2019-05-07T02:01:13.227Z,60.18
2019-05-07T02:04:09.160Z,59.86
2019-05-07T02:06:56.753Z,60.54
2019-05-07T02:09:38.624Z,60.59
2019-05-07T02:12:22.088Z,60.73
2019-05-07T02:14:53.120Z,59.90
2019-05-07T02:17:23.067Z,60.69
2019-05-07T02:19:53.042Z,60.87
2019-05-07T02:22:23.048Z,60.08
2019-05-07T02:24:53.072Z,59.91
2019-05-07T02:27:23.037Z,60.09
2019-05-07T02:29:53.067Z,60.65
2019-05-07T02:32:24.043Z,60.14
2019-05-07T02:34:54.748Z,60.11
2019-05-07T02:37:45.194Z,60.59
2019-05-07T02:40:23.357Z,60.53
2019-05-07T02:42:54.133Z,60.41
2019-05-07T02:45:50.114Z,60.67
2019-05-07T02:48:23.728Z,60.38
2019-05-07T02:50:59.664Z,60.64
2019-05-07T02:53:44.822Z,60.11
2019-05-07T02:56:14.725Z,60.37
2019-05-07T02:58:44.627Z,61.01
2019-05-07T03:01:14.618Z,61.18
2019-05-07T03:03:45.030Z,61.55
2019-05-07T03:06:15.183Z,61.43
2019-05-07T03:08:45.435Z,61.46
2019-05-07T03:11:15.483Z,61.62
2019-05-07T03:13:45.350Z,62.26
2019-05-07T03:16:34.426Z,61.48
2019-05-07T03:18:47.848Z,61.18
2019-05-07T03:21:18.344Z,61.13
2019-05-07T03:24:10.104Z,61.37
2019-05-07T03:26:44.017Z,61.33
2019-05-07T03:29:18.589Z,61.52
2019-05-07T03:32:10.462Z,61.34
2019-05-07T03:34:58.493Z,60.85
2019-05-07T03:37:35.768Z,61.89
2019-05-07T03:40:04.020Z,62.09
2019-05-07T03:42:33.873Z,61.47
2019-05-07T03:45:23.309Z,60.97
2019-05-07T03:48:06.475Z,60.85
2019-05-07T03:50:36.329Z,60.78
2019-05-07T03:53:06.387Z,60.90
2019-05-07T03:55:36.198Z,60.77
2019-05-07T03:58:06.119Z,60.88
2019-05-07T04:00:36.218Z,61.04
2019-05-07T04:03:06.238Z,61.35
2019-05-07T04:05:36.212Z,61.65
2019-05-07T04:08:06.089Z,61.45
2019-05-07T04:10:36.069Z,60.84
2019-05-07T04:13:06.031Z,60.77
2019-05-07T04:15:36.028Z,61.51
2019-05-07T04:18:06.627Z,61.13
2019-05-07T04:20:36.632Z,61.08
2019-05-07T04:23:06.648Z,60.78
2019-05-07T04:26:04.405Z,60.43
2019-05-07T04:28:55.238Z,60.80
2019-05-07T04:31:26.812Z,61.61
2019-05-07T04:33:58.897Z,60.66
2019-05-07T04:36:34.082Z,61.01
2019-05-07T04:39:03.489Z,60.13
2019-05-07T04:41:33.931Z,60.07
2019-05-07T04:44:04.101Z,60.13
2019-05-07T04:46:34.113Z,60.27
2019-05-07T04:49:04.365Z,60.07
2019-05-07T04:51:47.170Z,59.79
2019-05-07T04:54:17.030Z,59.70
2019-05-07T04:56:46.841Z,59.88
2019-05-07T04:59:16.672Z,60.01
2019-05-07T05:01:53.300Z,58.71
2019-05-07T05:04:30.255Z,58.84
2019-05-07T05:06:54.901Z,58.62
2019-05-07T05:09:24.905Z,58.49
2019-05-07T05:11:57.518Z,58.42
2019-05-07T05:14:27.435Z,57.82
2019-05-07T05:16:58.426Z,57.74
2019-05-07T05:19:28.416Z,57.28
2019-05-07T05:22:12.793Z,56.72
2019-05-07T05:24:45.666Z,56.84
2019-05-07T05:27:15.556Z,56.39
2019-05-07T05:29:45.505Z,56.58
2019-05-07T05:32:15.333Z,55.79
2019-05-07T05:34:45.292Z,56.56
2019-05-07T05:37:17.153Z,56.44
2019-05-07T05:39:46.878Z,57.67
2019-05-07T05:42:26.934Z,56.54
2019-05-07T05:44:57.278Z,56.01
2019-05-07T05:47:28.255Z,55.64
2019-05-07T05:49:58.129Z,54.43
2019-05-07T05:52:35.587Z,54.34
2019-05-07T05:55:17.823Z,53.69
2019-05-07T05:57:55.165Z,53.37
2019-05-07T06:00:43.036Z,53.11
2019-05-07T06:03:35.837Z,53.18
2019-05-07T06:06:22.008Z,52.80
2019-05-07T06:09:08.572Z,53.39
2019-05-07T06:12:03.707Z,52.99
2019-05-07T06:15:04.629Z,51.84
2019-05-07T06:17:56.580Z,51.22
2019-05-07T06:20:49.389Z,51.29
2019-05-07T06:23:34.368Z,51.91
2019-05-07T06:26:05.303Z,49.71
2019-05-07T06:28:35.455Z,47.77
2019-05-07T06:31:05.472Z,47.32
2019-05-07T06:33:35.457Z,48.46
2019-05-07T06:36:05.508Z,48.15
2019-05-07T06:38:42.707Z,47.34
2019-05-07T06:41:23.707Z,46.38
2019-05-07T06:43:57.682Z,46.44
2019-05-07T06:46:27.742Z,47.07
2019-05-07T06:48:57.727Z,47.94
2019-05-07T06:51:27.540Z,47.89
2019-05-07T06:53:57.580Z,48.31
2019-05-07T06:56:27.489Z,47.46
2019-05-07T06:59:22.471Z,47.80
2019-05-07T07:02:22.522Z,47.53
2019-05-07T07:05:02.896Z,46.64
2019-05-07T07:07:37.741Z,46.08
2019-05-07T07:10:33.099Z,47.46
2019-05-07T07:13:04.135Z,46.10
2019-05-07T07:15:34.156Z,44.66
2019-05-07T07:18:04.139Z,44.42
2019-05-07T07:20:34.187Z,44.29
2019-05-07T07:23:05.115Z,45.07
2019-05-07T07:25:35.069Z,45.43
2019-05-07T07:28:05.136Z,44.73
2019-05-07T07:30:52.681Z,45.38
2019-05-07T07:33:24.398Z,44.75
2019-05-07T07:35:54.303Z,44.36
2019-05-07T07:38:33.459Z,43.40
2019-05-07T07:41:24.476Z,43.64
2019-05-07T07:43:54.459Z,42.72
2019-05-07T07:46:25.576Z,40.95
2019-05-07T07:49:09.877Z,39.81
2019-05-07T07:51:38.904Z,40.41
2019-05-07T07:54:02.445Z,40.83
2019-05-07T07:57:04.220Z,40.27
2019-05-07T08:00:02.642Z,39.05
2019-05-07T08:03:02.322Z,39.53
2019-05-07T08:05:32.636Z,40.42
2019-05-07T08:08:02.716Z,40.15
2019-05-07T08:10:32.739Z,39.47
2019-05-07T08:13:02.748Z,36.81
2019-05-07T08:15:33.841Z,36.93
2019-05-07T08:18:03.992Z,36.73
2019-05-07T08:20:34.030Z,37.20
2019-05-07T08:23:04.114Z,37.66
2019-05-07T08:25:49.168Z,36.73
2019-05-07T08:28:22.872Z,35.54
2019-05-07T08:31:11.905Z,37.25
2019-05-07T08:33:51.805Z,36.13
2019-05-07T08:36:22.637Z,34.64
2019-05-07T08:38:56.688Z,35.60
2019-05-07T08:41:27.990Z,34.90
2019-05-07T08:44:12.288Z,34.61
2019-05-07T08:46:56.742Z,35.40
2019-05-07T08:49:36.764Z,35.48
2019-05-07T08:52:03.534Z,36.10
2019-05-07T08:54:33.794Z,35.26
2019-05-07T08:57:04.172Z,34.33
2019-05-07T08:59:35.305Z,35.32
2019-05-07T09:02:06.898Z,35.22
2019-05-07T09:04:36.878Z,32.92
2019-05-07T09:07:07.053Z,34.83
2019-05-07T09:09:37.006Z,33.47
2019-05-07T09:12:07.013Z,34.53
2019-05-07T09:14:36.930Z,33.54
2019-05-07T09:17:06.845Z,33.75
2019-05-07T09:19:49.967Z,34.06
2019-05-07T09:22:08.541Z,33.54
2019-05-07T09:24:38.450Z,33.29
2019-05-07T09:27:35.089Z,32.02
2019-05-07T09:30:22.191Z,33.70
2019-05-07T09:32:56.133Z,33.30
2019-05-07T09:35:32.103Z,33.66
2019-05-07T09:38:03.218Z,32.62
2019-05-07T09:40:33.286Z,33.29
2019-05-07T09:43:03.218Z,32.71
2019-05-07T09:45:33.190Z,31.25
2019-05-07T09:48:03.200Z,32.20
2019-05-07T09:50:33.188Z,33.74
2019-05-07T09:53:03.213Z,32.74
2019-05-07T09:55:33.106Z,31.82
2019-05-07T09:58:03.130Z,31.93
2019-05-07T10:00:33.107Z,32.71
2019-05-07T10:03:03.095Z,31.78
2019-05-07T10:05:34.052Z,31.73
2019-05-07T10:08:04.362Z,33.41
2019-05-07T10:10:34.455Z,32.02
2019-05-07T10:13:14.557Z,31.69
2019-05-07T10:15:44.629Z,31.56
2019-05-07T10:18:16.045Z,31.21
2019-05-07T10:20:46.147Z,31.65
2019-05-07T10:23:23.000Z,31.13
2019-05-07T10:25:54.195Z,31.50
2019-05-07T10:28:24.531Z,31.00
2019-05-07T10:30:55.281Z,31.74
2019-05-07T10:33:25.397Z,32.11
2019-05-07T10:35:55.320Z,31.95
2019-05-07T10:38:25.395Z,29.28
2019-05-07T10:40:55.379Z,31.21
2019-05-07T10:43:25.387Z,29.42
2019-05-07T10:46:13.042Z,31.55
2019-05-07T10:49:14.032Z,32.67
2019-05-07T10:51:44.012Z,30.44
2019-05-07T10:54:14.117Z,30.35
2019-05-07T10:56:44.026Z,31.02
2019-05-07T10:59:13.862Z,32.19
2019-05-07T11:01:59.327Z,28.97
2019-05-07T11:04:40.307Z,32.34
2019-05-07T11:07:00.844Z,30.05
2019-05-07T11:09:32.689Z,33.24
2019-05-07T11:12:02.640Z,31.23
2019-05-07T11:14:32.649Z,30.04
2019-05-07T11:17:15.990Z,30.97
2019-05-07T11:19:45.991Z,30.56
2019-05-07T11:22:15.983Z,31.57
2019-05-07T11:24:45.904Z,31.30
2019-05-07T11:27:15.864Z,30.85
2019-05-07T11:29:45.852Z,30.01
2019-05-07T11:32:15.811Z,30.72
2019-05-07T11:34:46.979Z,31.34
2019-05-07T11:37:16.946Z,31.42
2019-05-07T11:39:46.907Z,31.27
2019-05-07T11:42:35.736Z,32.05
2019-05-07T11:45:07.722Z,31.79
2019-05-07T11:47:37.759Z,32.90
2019-05-07T11:50:33.100Z,33.98
2019-05-07T11:53:05.960Z,32.78
2019-05-07T11:55:35.925Z,30.55
2019-05-07T11:58:05.874Z,30.46
2019-05-07T12:00:44.387Z,29.86
2019-05-07T12:03:14.326Z,30.48
2019-05-07T12:05:44.280Z,33.69
2019-05-07T12:08:14.170Z,33.00
2019-05-07T12:10:44.159Z,31.19
2019-05-07T12:13:14.064Z,30.10
2019-05-07T12:15:44.037Z,31.65
2019-05-07T12:18:13.862Z,31.08
2019-05-07T12:20:43.916Z,32.32
2019-05-07T12:23:13.895Z,30.62
2019-05-07T12:25:43.912Z,33.14
2019-05-07T12:28:13.815Z,29.73
2019-05-07T12:31:01.223Z,29.57
2019-05-07T12:33:48.846Z,31.91
2019-05-07T12:36:18.743Z,30.73
2019-05-07T12:38:48.725Z,29.71
2019-05-07T12:41:33.734Z,30.54
2019-05-07T12:44:06.751Z,30.95
2019-05-07T12:46:38.234Z,31.06
2019-05-07T12:49:08.223Z,29.64
2019-05-07T12:51:48.502Z,28.69
2019-05-07T12:54:36.482Z,28.87
2019-05-07T12:57:04.854Z,28.75
2019-05-07T12:59:34.748Z,28.24
2019-05-07T13:02:38.094Z,31.34
2019-05-07T13:04:59.605Z,29.78
2019-05-07T13:07:48.735Z,28.92
2019-05-07T13:10:18.803Z,30.32
2019-05-07T13:12:48.777Z,28.66
2019-05-07T13:15:25.023Z,29.02
2019-05-07T13:17:52.060Z,28.36
2019-05-07T13:20:22.724Z,29.45
2019-05-07T13:22:52.727Z,28.02
2019-05-07T13:25:28.420Z,29.26
2019-05-07T13:27:54.506Z,29.84
2019-05-07T13:30:24.541Z,29.85
2019-05-07T13:32:55.382Z,29.72
2019-05-07T13:35:26.220Z,30.26
2019-05-07T13:38:24.879Z,29.64
2019-05-07T13:41:02.353Z,30.35
2019-05-07T13:43:37.281Z,31.15
2019-05-07T13:46:12.265Z,27.31
2019-05-07T13:48:45.474Z,27.12
2019-05-07T13:51:14.951Z,28.69
2019-05-07T13:53:45.062Z,32.16
2019-05-07T13:56:15.750Z,30.13
2019-05-07T13:58:45.769Z,29.62
2019-05-07T14:01:24.149Z,29.31
2019-05-07T14:03:54.081Z,29.27
2019-05-07T14:06:39.507Z,30.77
2019-05-07T14:09:23.941Z,28.93
2019-05-07T14:11:53.004Z,30.89
2019-05-07T14:14:23.143Z,29.74
2019-05-07T14:16:53.337Z,29.25
2019-05-07T14:19:23.392Z,27.43
2019-05-07T14:21:54.431Z,28.93
2019-05-07T14:24:24.380Z,29.30
2019-05-07T14:26:54.368Z,31.00
2019-05-07T14:29:24.949Z,29.83
2019-05-07T14:32:09.443Z,31.30
2019-05-07T14:34:57.140Z,29.66
2019-05-07T14:37:32.568Z,28.62
2019-05-07T14:40:02.824Z,27.87
2019-05-07T14:42:38.529Z,28.60
2019-05-07T14:45:09.905Z,28.21
2019-05-07T14:47:39.988Z,27.57
2019-05-07T14:50:12.205Z,29.58
2019-05-07T14:52:43.303Z,30.20
2019-05-07T14:55:13.944Z,29.79
2019-05-07T14:57:43.920Z,30.22
2019-05-07T15:00:14.138Z,31.57
2019-05-07T15:02:44.251Z,32.28
2019-05-07T15:05:14.339Z,31.85
2019-05-07T15:07:44.394Z,31.90
2019-05-07T15:10:14.588Z,33.22
2019-05-07T15:12:45.003Z,32.65
2019-05-07T15:15:15.223Z,32.92
2019-05-07T15:17:52.484Z,31.52
2019-05-07T15:20:22.739Z,30.44
2019-05-07T15:22:59.403Z,29.98
2019-05-07T15:25:29.483Z,30.80
2019-05-07T15:28:01.622Z,29.81
2019-05-07T15:30:43.391Z,29.78
2019-05-07T15:33:13.346Z,28.95
2019-05-07T15:35:43.255Z,29.35
2019-05-07T15:38:13.269Z,31.01
2019-05-07T15:40:43.245Z,29.97
2019-05-07T15:43:13.350Z,30.53
2019-05-07T15:45:43.439Z,31.30
2019-05-07T15:48:13.438Z,31.14
2019-05-07T15:50:43.352Z,29.88
2019-05-07T15:53:26.581Z,30.86
2019-05-07T15:55:56.528Z,30.65
2019-05-07T15:58:26.436Z,30.10
2019-05-07T16:00:56.432Z,29.56
2019-05-07T16:03:32.403Z,31.14
2019-05-07T16:06:03.807Z,29.80
2019-05-07T16:08:37.789Z,30.51
2019-05-07T16:11:07.685Z,30.29
2019-05-07T16:13:42.077Z,31.27
2019-05-07T16:16:11.903Z,30.59
2019-05-07T16:19:01.763Z,31.36
2019-05-07T16:21:32.475Z,30.54
2019-05-07T16:24:04.074Z,29.80
2019-05-07T16:26:34.140Z,31.07
2019-05-07T16:29:04.644Z,30.11
2019-05-07T16:31:34.821Z,31.19
2019-05-07T16:34:04.799Z,30.60
2019-05-07T16:36:34.708Z,30.56
2019-05-07T16:39:06.332Z,31.01
2019-05-07T16:41:36.395Z,31.47
2019-05-07T16:44:06.591Z,31.11
2019-05-07T16:46:36.423Z,30.61
2019-05-07T16:49:06.427Z,32.64
2019-05-07T16:51:36.426Z,31.48
2019-05-07T16:54:06.349Z,32.16
2019-05-07T16:56:38.265Z,32.10
2019-05-07T16:59:08.205Z,31.37
2019-05-07T17:01:38.068Z,31.38
2019-05-07T17:04:08.146Z,31.09
2019-05-07T17:06:37.970Z,31.39
2019-05-07T17:09:13.218Z,31.56
2019-05-07T17:11:43.709Z,31.22
2019-05-07T17:14:13.933Z,31.03
2019-05-07T17:16:43.895Z,31.49
2019-05-07T17:19:15.115Z,32.02
2019-05-07T17:21:46.105Z,32.75
2019-05-07T17:24:15.999Z,32.27
2019-05-07T17:26:45.917Z,32.03
2019-05-07T17:29:15.844Z,33.43
2019-05-07T17:31:45.834Z,34.09
2019-05-07T17:34:15.760Z,34.36
2019-05-07T17:36:52.546Z,35.21
2019-05-07T17:39:22.713Z,33.83
2019-05-07T17:41:52.519Z,34.33
2019-05-07T17:44:23.253Z,34.53
2019-05-07T17:46:53.373Z,34.60
2019-05-07T17:49:23.278Z,35.27
2019-05-07T17:51:53.285Z,35.13
2019-05-07T17:54:23.306Z,35.67
2019-05-07T17:56:53.240Z,36.11
2019-05-07T17:59:23.241Z,36.63
2019-05-07T18:02:15.081Z,36.97
2019-05-07T18:04:51.233Z,37.92
2019-05-07T18:07:18.848Z,37.03
2019-05-07T18:09:48.897Z,38.17
2019-05-07T18:12:18.831Z,38.00
2019-05-07T18:14:48.844Z,38.82
2019-05-07T18:17:42.032Z,39.36
2019-05-07T18:20:13.214Z,39.13
2019-05-07T18:22:43.270Z,39.57
2019-05-07T18:25:13.551Z,39.73
2019-05-07T18:27:43.531Z,40.87
2019-05-07T18:30:13.616Z,40.18
2019-05-07T18:32:47.475Z,40.36
2019-05-07T18:35:17.487Z,40.70
2019-05-07T18:37:53.579Z,41.42
2019-05-07T18:40:23.659Z,41.88
2019-05-07T18:42:53.671Z,42.13
2019-05-07T18:45:23.704Z,42.24
2019-05-07T18:47:53.652Z,42.18
2019-05-07T18:50:23.640Z,42.48
2019-05-07T18:52:53.617Z,43.11
2019-05-07T18:55:24.559Z,43.65
2019-05-07T18:57:54.576Z,43.59
2019-05-07T19:00:31.762Z,43.79
2019-05-07T19:03:03.455Z,44.48
2019-05-07T19:05:34.724Z,44.38
2019-05-07T19:08:08.436Z,44.84
2019-05-07T19:10:36.687Z,44.57
2019-05-07T19:13:06.624Z,44.78
2019-05-07T19:15:36.649Z,45.77
2019-05-07T19:18:06.571Z,45.82
2019-05-07T19:20:36.639Z,45.83
2019-05-07T19:23:06.675Z,46.33
2019-05-07T19:25:36.521Z,46.48
2019-05-07T19:28:06.614Z,46.83
2019-05-07T19:30:36.598Z,47.70
2019-05-07T19:33:06.717Z,47.49
2019-05-07T19:35:36.561Z,47.55
2019-05-07T19:38:06.906Z,48.54
2019-05-07T19:40:36.808Z,48.96
2019-05-07T19:43:06.892Z,48.89
2019-05-07T19:45:36.735Z,49.00
2019-05-07T19:48:06.732Z,48.82
2019-05-07T19:50:36.572Z,49.38
2019-05-07T19:53:06.657Z,48.59
2019-05-07T19:55:54.754Z,48.31
2019-05-07T19:58:24.776Z,48.58
2019-05-07T20:00:57.173Z,48.64
2019-05-07T20:03:26.691Z,48.00
2019-05-07T20:05:56.785Z,48.38
2019-05-07T20:08:26.783Z,48.97
2019-05-07T20:11:02.718Z,48.91
2019-05-07T20:13:32.710Z,48.95
2019-05-07T20:16:15.282Z,48.91
2019-05-07T20:18:46.478Z,49.80
2019-05-07T20:21:16.665Z,49.50
2019-05-07T20:23:46.682Z,50.09
2019-05-07T20:26:16.694Z,50.12
2019-05-07T20:28:46.610Z,50.36
2019-05-07T20:31:16.436Z,50.50
2019-05-07T20:33:47.699Z,50.69
2019-05-07T20:36:17.747Z,51.28
2019-05-07T20:38:47.653Z,51.23
2019-05-07T20:41:17.716Z,51.07
2019-05-07T20:43:47.704Z,51.36
2019-05-07T20:46:17.794Z,52.05
2019-05-07T20:48:47.803Z,51.95
2019-05-07T20:51:17.734Z,51.75
2019-05-07T20:54:12.996Z,51.69
2019-05-07T20:56:47.622Z,52.14
2019-05-07T20:59:17.721Z,52.54
2019-05-07T21:01:47.571Z,52.78
2019-05-07T21:04:17.401Z,53.24
2019-05-07T21:06:47.364Z,53.18
2019-05-07T21:09:17.275Z,53.15
2019-05-07T21:11:47.129Z,53.96
2019-05-07T21:14:17.026Z,54.16
2019-05-07T21:16:46.917Z,54.72
2019-05-07T21:19:16.772Z,55.11
2019-05-07T21:21:46.577Z,55.20
2019-05-07T21:24:19.484Z,55.33
2019-05-07T21:26:49.484Z,55.44
2019-05-07T21:29:19.384Z,55.69
2019-05-07T21:31:49.342Z,56.35
2019-05-07T21:34:19.183Z,56.67
2019-05-07T21:36:49.214Z,56.98
2019-05-07T21:39:19.148Z,57.31
2019-05-07T21:41:49.162Z,57.66
2019-05-07T21:44:19.197Z,57.96
2019-05-07T21:46:49.023Z,58.35
2019-05-07T21:49:18.883Z,58.81
2019-05-07T21:51:48.840Z,57.62
2019-05-07T21:54:34.360Z,56.87
2019-05-07T21:57:22.240Z,56.20
2019-05-07T22:00:12.633Z,55.64
2019-05-07T22:02:44.576Z,55.47
2019-05-07T22:05:15.911Z,55.34
2019-05-07T22:07:45.824Z,55.60
2019-05-07T22:10:16.207Z,55.79
2019-05-07T22:12:46.141Z,56.50
2019-05-07T22:15:16.202Z,57.04
2019-05-07T22:17:46.114Z,57.28
2019-05-07T22:20:16.135Z,57.48
2019-05-07T22:22:46.035Z,57.44
2019-05-07T22:25:16.067Z,57.23
2019-05-07T22:27:47.579Z,57.01
2019-05-07T22:30:24.551Z,56.95
2019-05-07T22:32:59.409Z,57.42
2019-05-07T22:35:32.519Z,58.25
2019-05-07T22:38:22.681Z,57.97
2019-05-07T22:40:52.121Z,58.35
2019-05-07T22:43:22.688Z,58.18
2019-05-07T22:45:52.669Z,58.20
2019-05-07T22:48:23.697Z,58.21
2019-05-07T22:50:53.631Z,58.56
2019-05-07T22:53:23.642Z,59.07
2019-05-07T22:55:53.496Z,59.37
2019-05-07T22:58:32.556Z,59.97
2019-05-07T23:01:07.779Z,60.03
2019-05-07T23:03:38.109Z,60.60
2019-05-07T23:06:08.061Z,60.76
2019-05-07T23:08:39.432Z,61.11
2019-05-07T23:11:09.559Z,61.27
2019-05-07T23:13:39.539Z,61.50
2019-05-07T23:16:09.585Z,61.59
2019-05-07T23:18:39.479Z,61.78
2019-05-07T23:21:09.299Z,62.19
2019-05-07T23:23:39.350Z,62.69
2019-05-07T23:26:09.195Z,62.75
2019-05-07T23:28:39.067Z,62.29
2019-05-07T23:31:08.904Z,62.35
2019-05-07T23:33:38.880Z,62.11
2019-05-07T23:36:08.820Z,62.07
2019-05-07T23:38:38.812Z,61.26
2019-05-07T23:41:24.707Z,61.28
2019-05-07T23:44:14.664Z,61.23
2019-05-07T23:46:45.194Z,61.07
2019-05-07T23:49:16.193Z,61.05
2019-05-07T23:51:46.197Z,61.00
2019-05-07T23:54:16.198Z,60.81
2019-05-07T23:56:46.139Z,60.35
2019-05-07T23:59:17.077Z,60.06
